Hosston, Louisiana
Current Conditions -  °F | °C
As of 6:53 PM on Tuesday 21 Oct 2014 (Local Time) from KDTN Reporting Station
Clear Clear  
Wind Chill: 69°   Ceiling: Unl
Heat Index: 69°   Visibility: 10mi
Dew Point: 61°   Wind: 0mph
Humidity: 75%   Direction: NA
Pressure: 30.02"   Gusts: NA
Location:  32.89°N, 93.88°W
Report Text: KDTN 212353Z 00000KT 10SM CLR 21/16 A3002 RMK AO2 SLP165 T02060161 10272 20206 55001
Loading
Personal Weather Stations






























Interactive Weather Map
Tropical Storm Tracking
New forecast layout! Learn more

10-Day Weather Forecast

Advertisements
Track Severe Weather on mobile